M/V Hera — V7UA5 — position and weather

sailwx.info

Track history (hours):
 
Tides and Currents Weather Stations Pressure Air Temp Water Temp Dewpoint Dewpoint Depression Visibility Wind Speed Wind Dir Waves Ship Positions

M/V Hera

Last reported at 2018-May-17 05:13 UTC. Time now 2018-May-26 19:23 UTC.
Position N 35°56' E 014°51'.
Warning: this ship's position is 9 days out of date.

Length 175 m; draft 6.3 m.

Type: Cargo ship. MMSI: 538003917.

Date/timePositionNaut miles runAvg speedWind from/ knotsBaromVisibWave heightAir tempDewpointWater temp
2018-May-17 05:13N 35°56' E 014°51'2 0.5
2018-May-16 23:54N 35°57' E 014°54'4 9.5
2018-May-16 23:27N 35°57' E 014°59'612.3
2018-May-16 23:00N 35°56' E 015°06'612.1
2018-May-16 22:30N 35°56' E 015°14'611.8
2018-May-16 21:59N 35°55' E 015°21'1412.1
2018-May-16 20:49N 35°52' E 015°38'412.7
2018-May-16 20:29N 35°52' E 015°43'  
2018-May-07 15:45N 35°50' E 015°23'311.1
2018-May-07 15:30N 35°51' E 015°20'611.1
2018-May-07 14:58N 35°53' E 015°13'510.8
2018-May-07 14:30N 35°54' E 015°07'510.7
2018-May-07 14:00N 35°55' E 015°01'610.5
2018-May-07 13:28N 35°56' E 014°54'510.6
2018-May-07 13:00N 35°56' E 014°48'2 4.8
2018-May-07 12:29N 35°55' E 014°45'0 0.0
2018-May-07 11:56N 35°55' E 014°45'0 0.1
2018-May-07 11:23N 35°55' E 014°45'0 0.0
2018-May-07 10:59N 35°55' E 014°45'0 0.1
2018-May-07 10:28N 35°55' E 014°45'0 0.0
2018-May-07 09:55N 35°55' E 014°45'0 0.0
2018-May-07 09:28N 35°55' E 014°45'0 0.0
2018-May-07 08:52N 35°55' E 014°45'0 0.1
2018-May-07 08:18N 35°55' E 014°45'0 0.1
2018-May-07 07:54N 35°55' E 014°45'0 0.0
2018-May-07 07:30N 35°55' E 014°45'2 3.9
2018-May-07 07:00N 35°56' E 014°43'4 8.0
2018-May-07 06:30N 35°58' E 014°39'510.8
2018-May-07 06:00N 36°01' E 014°34'511.0
2018-May-07 05:30N 36°05' E 014°28'  
Track history (hours):
 
Tides and Currents Weather Stations Pressure Air Temp Water Temp Dewpoint Dewpoint Depression Visibility Wind Speed Wind Dir Waves Ship Positions

M/V Hera

Last reported at 2018-May-17 05:13 UTC. Time now 2018-May-26 19:23 UTC.
Position N 35°56' E 014°51'.
Warning: this ship's position is 9 days out of date.

Length 175 m; draft 6.3 m.

Type: Cargo ship. MMSI: 538003917.

Date/timePositionNaut miles runAvg speedWind from/ knotsBaromVisibWave heightAir tempDewpointWater temp
2018-May-17 05:13N 35°56' E 014°51'2 0.5
2018-May-16 23:54N 35°57' E 014°54'4 9.5
2018-May-16 23:27N 35°57' E 014°59'612.3
2018-May-16 23:00N 35°56' E 015°06'612.1
2018-May-16 22:30N 35°56' E 015°14'611.8
2018-May-16 21:59N 35°55' E 015°21'1412.1
2018-May-16 20:49N 35°52' E 015°38'412.7
2018-May-16 20:29N 35°52' E 015°43'  
2018-May-07 15:45N 35°50' E 015°23'311.1
2018-May-07 15:30N 35°51' E 015°20'611.1
2018-May-07 14:58N 35°53' E 015°13'510.8
2018-May-07 14:30N 35°54' E 015°07'510.7
2018-May-07 14:00N 35°55' E 015°01'610.5
2018-May-07 13:28N 35°56' E 014°54'510.6
2018-May-07 13:00N 35°56' E 014°48'2 4.8
2018-May-07 12:29N 35°55' E 014°45'0 0.0
2018-May-07 11:56N 35°55' E 014°45'0 0.1
2018-May-07 11:23N 35°55' E 014°45'0 0.0
2018-May-07 10:59N 35°55' E 014°45'0 0.1
2018-May-07 10:28N 35°55' E 014°45'0 0.0
2018-May-07 09:55N 35°55' E 014°45'0 0.0
2018-May-07 09:28N 35°55' E 014°45'0 0.0
2018-May-07 08:52N 35°55' E 014°45'0 0.1
2018-May-07 08:18N 35°55' E 014°45'0 0.1
2018-May-07 07:54N 35°55' E 014°45'0 0.0
2018-May-07 07:30N 35°55' E 014°45'2 3.9
2018-May-07 07:00N 35°56' E 014°43'4 8.0
2018-May-07 06:30N 35°58' E 014°39'510.8
2018-May-07 06:00N 36°01' E 014°34'511.0
2018-May-07 05:30N 36°05' E 014°28'  

Dump ship's entire track history